Babbitt, Minnesota
Current Conditions -  °F | °C
As of 2:13 AM on Monday 26 Jan 2015 (Local Time) from KELO Reporting Station
Light Snow Light Snow  
Wind Chill:   Ceiling: 3200
Heat Index: 18°   Visibility: 4mi
Dew Point: 14°   Wind: 10mph
Humidity: 86%   Direction: 170°S
Pressure: 29.75"   Gusts: NA
Location:  47.71°N, 91.94°W
Report Text: KELO 260813Z AUTO 17009KT 4SM -SN SCT011 SCT021 BKN032 M08/M10 A2975 RMK AO2
Loading
Personal Weather Stations






























Interactive Weather Map New forecast layout! Learn more

10-Day Weather Forecast

Advertisements
Track Severe Weather on mobile